sensor_id;sensor_type;location;lat;lon;timestamp;temperature;humidity
44477;DHT22;30180;44.788;10.366;2022-12-29T14:13:37;16.50;71.20
44477;DHT22;30180;44.788;10.366;2022-12-29T14:16:09;16.50;71.80
44477;DHT22;30180;44.788;10.366;2022-12-29T14:18:42;16.50;71.90
44477;DHT22;30180;44.788;10.366;2022-12-29T14:21:17;16.60;72.10
44477;DHT22;30180;44.788;10.366;2022-12-29T14:23:47;16.60;72.20
44477;DHT22;30180;44.788;10.366;2022-12-29T14:26:18;16.60;72.40
44477;DHT22;30180;44.788;10.366;2022-12-29T14:29:22;16.70;72.50
44477;DHT22;30180;44.788;10.366;2022-12-29T14:32:35;16.70;72.60
44477;DHT22;30180;44.788;10.366;2022-12-29T14:38:25;16.80;72.60
44477;DHT22;30180;44.788;10.366;2022-12-29T14:41:17;16.80;72.70
44477;DHT22;30180;44.788;10.366;2022-12-29T14:43:59;16.80;72.70
44477;DHT22;30180;44.788;10.366;2022-12-29T14:49:24;16.90;72.80
44477;DHT22;30180;44.788;10.366;2022-12-29T14:51:54;16.90;72.80
44477;DHT22;30180;44.788;10.366;2022-12-29T14:54:53;16.90;72.90
44477;DHT22;30180;44.788;10.366;2022-12-29T14:57:34;16.90;72.80
44477;DHT22;30180;44.788;10.366;2022-12-29T15:00:15;16.90;72.80
44477;DHT22;30180;44.788;10.366;2022-12-29T15:02:45;16.90;72.90
44477;DHT22;30180;44.788;10.366;2022-12-29T15:05:27;16.90;72.80
44477;DHT22;30180;44.788;10.366;2022-12-29T15:07:56;16.90;72.90
44477;DHT22;30180;44.788;10.366;2022-12-29T15:10:33;16.90;72.80
44477;DHT22;30180;44.788;10.366;2022-12-29T15:13:10;16.90;72.90
44477;DHT22;30180;44.788;10.366;2022-12-29T15:15:42;16.90;72.90
44477;DHT22;30180;44.788;10.366;2022-12-29T15:18:27;16.90;72.90
44477;DHT22;30180;44.788;10.366;2022-12-29T15:20:59;16.90;72.90
44477;DHT22;30180;44.788;10.366;2022-12-29T15:23:30;16.90;72.90
44477;DHT22;30180;44.788;10.366;2022-12-29T15:26:01;16.90;73.00
44477;DHT22;30180;44.788;10.366;2022-12-29T15:28:37;16.90;73.00
44477;DHT22;30180;44.788;10.366;2022-12-29T15:31:10;16.90;73.00
44477;DHT22;30180;44.788;10.366;2022-12-29T15:33:40;16.90;73.00
44477;DHT22;30180;44.788;10.366;2022-12-29T15:36:13;17.00;73.10
44477;DHT22;30180;44.788;10.366;2022-12-29T15:38:41;16.90;73.00
44477;DHT22;30180;44.788;10.366;2022-12-29T15:41:24;16.90;73.10
44477;DHT22;30180;44.788;10.366;2022-12-29T15:44:08;17.00;73.20
44477;DHT22;30180;44.788;10.366;2022-12-29T15:46:39;17.00;73.20
44477;DHT22;30180;44.788;10.366;2022-12-29T15:49:08;17.00;73.20
44477;DHT22;30180;44.788;10.366;2022-12-29T15:51:39;17.00;73.10
44477;DHT22;30180;44.788;10.366;2022-12-29T15:54:15;17.10;73.30
44477;DHT22;30180;44.788;10.366;2022-12-29T15:56:44;17.10;73.30
44477;DHT22;30180;44.788;10.366;2022-12-29T15:59:23;17.00;73.20
44477;DHT22;30180;44.788;10.366;2022-12-29T16:01:52;17.10;73.30
44477;DHT22;30180;44.788;10.366;2022-12-29T16:04:22;17.10;73.30
44477;DHT22;30180;44.788;10.366;2022-12-29T16:06:59;17.10;73.30
44477;DHT22;30180;44.788;10.366;2022-12-29T16:09:32;17.10;73.30
44477;DHT22;30180;44.788;10.366;2022-12-29T16:12:02;17.10;73.30
44477;DHT22;30180;44.788;10.366;2022-12-29T16:14:33;17.20;73.30
44477;DHT22;30180;44.788;10.366;2022-12-29T16:17:03;17.20;73.30
44477;DHT22;30180;44.788;10.366;2022-12-29T16:19:34;17.20;73.20
44477;DHT22;30180;44.788;10.366;2022-12-29T16:22:11;17.20;73.30
44477;DHT22;30180;44.788;10.366;2022-12-29T16:24:40;17.20;73.20
44477;DHT22;30180;44.788;10.366;2022-12-29T16:27:13;17.20;73.20
44477;DHT22;30180;44.788;10.366;2022-12-29T16:29:43;17.20;73.10
44477;DHT22;30180;44.788;10.366;2022-12-29T16:32:24;17.20;73.10
44477;DHT22;30180;44.788;10.366;2022-12-29T16:35:08;17.20;73.10
44477;DHT22;30180;44.788;10.366;2022-12-29T16:37:38;17.20;73.10
44477;DHT22;30180;44.788;10.366;2022-12-29T16:40:28;17.30;73.10
44477;DHT22;30180;44.788;10.366;2022-12-29T16:42:59;17.20;73.00
44477;DHT22;30180;44.788;10.366;2022-12-29T16:48:51;17.20;72.90
44477;DHT22;30180;44.788;10.366;2022-12-29T16:51:28;17.20;72.90
44477;DHT22;30180;44.788;10.366;2022-12-29T16:53:59;17.20;72.90
44477;DHT22;30180;44.788;10.366;2022-12-29T16:56:30;17.20;72.90
44477;DHT22;30180;44.788;10.366;2022-12-29T16:59:03;17.20;72.80
44477;DHT22;30180;44.788;10.366;2022-12-29T17:01:35;17.20;72.80
44477;DHT22;30180;44.788;10.366;2022-12-29T17:04:06;17.20;72.80
44477;DHT22;30180;44.788;10.366;2022-12-29T17:06:35;17.20;72.70
44477;DHT22;30180;44.788;10.366;2022-12-29T17:09:16;17.20;72.70
44477;DHT22;30180;44.788;10.366;2022-12-29T17:11:45;17.20;72.70
44477;DHT22;30180;44.788;10.366;2022-12-29T17:14:37;17.20;72.70
44477;DHT22;30180;44.788;10.366;2022-12-29T17:17:18;17.20;72.70
44477;DHT22;30180;44.788;10.366;2022-12-29T17:19:51;17.20;72.60
44477;DHT22;30180;44.788;10.366;2022-12-29T17:22:23;17.20;72.60
44477;DHT22;30180;44.788;10.366;2022-12-29T17:24:54;17.20;72.60
44477;DHT22;30180;44.788;10.366;2022-12-29T17:27:29;17.20;72.60
44477;DHT22;30180;44.788;10.366;2022-12-29T17:30:01;17.20;72.50
44477;DHT22;30180;44.788;10.366;2022-12-29T17:32:30;17.20;72.50
44477;DHT22;30180;44.788;10.366;2022-12-29T17:34:59;17.20;72.50
44477;DHT22;30180;44.788;10.366;2022-12-29T17:37:30;17.20;72.50
44477;DHT22;30180;44.788;10.366;2022-12-29T17:40:00;17.20;72.50
44477;DHT22;30180;44.788;10.366;2022-12-29T17:42:29;17.20;72.50
44477;DHT22;30180;44.788;10.366;2022-12-29T17:45:00;17.20;72.50
44477;DHT22;30180;44.788;10.366;2022-12-29T17:47:28;17.20;72.40
44477;DHT22;30180;44.788;10.366;2022-12-29T17:49:57;17.20;72.50
44477;DHT22;30180;44.788;10.366;2022-12-29T17:52:25;17.20;72.40
44477;DHT22;30180;44.788;10.366;2022-12-29T17:54:53;17.20;72.50
44477;DHT22;30180;44.788;10.366;2022-12-29T17:57:23;17.20;72.40
44477;DHT22;30180;44.788;10.366;2022-12-29T17:59:51;17.20;72.50
44477;DHT22;30180;44.788;10.366;2022-12-29T18:02:25;17.20;72.40
44477;DHT22;30180;44.788;10.366;2022-12-29T18:04:55;17.20;72.40
44477;DHT22;30180;44.788;10.366;2022-12-29T18:07:26;17.20;72.40
44477;DHT22;30180;44.788;10.366;2022-12-29T18:10:01;17.20;72.40
44477;DHT22;30180;44.788;10.366;2022-12-29T18:12:37;17.20;72.30
44477;DHT22;30180;44.788;10.366;2022-12-29T18:15:09;17.30;72.40
44477;DHT22;30180;44.788;10.366;2022-12-29T18:17:43;17.20;72.30
44477;DHT22;30180;44.788;10.366;2022-12-29T18:20:11;17.30;72.30
44477;DHT22;30180;44.788;10.366;2022-12-29T18:22:39;17.20;72.30
44477;DHT22;30180;44.788;10.366;2022-12-29T18:25:20;17.30;72.30
44477;DHT22;30180;44.788;10.366;2022-12-29T18:27:50;17.20;72.20
44477;DHT22;30180;44.788;10.366;2022-12-29T18:30:19;17.30;72.30
44477;DHT22;30180;44.788;10.366;2022-12-29T18:32:47;17.20;72.20
44477;DHT22;30180;44.788;10.366;2022-12-29T18:35:18;17.30;72.20
44477;DHT22;30180;44.788;10.366;2022-12-29T18:37:46;17.30;72.20
44477;DHT22;30180;44.788;10.366;2022-12-29T18:40:15;17.30;72.20
44477;DHT22;30180;44.788;10.366;2022-12-29T18:42:45;17.30;72.10
44477;DHT22;30180;44.788;10.366;2022-12-29T18:45:19;17.20;72.10
44477;DHT22;30180;44.788;10.366;2022-12-29T18:47:48;17.20;72.10
44477;DHT22;30180;44.788;10.366;2022-12-29T18:50:16;17.20;72.00
44477;DHT22;30180;44.788;10.366;2022-12-29T18:52:45;17.20;72.00
44477;DHT22;30180;44.788;10.366;2022-12-29T18:55:15;17.20;72.00
44477;DHT22;30180;44.788;10.366;2022-12-29T18:57:44;17.20;72.00
44477;DHT22;30180;44.788;10.366;2022-12-29T19:00:15;17.20;71.90
44477;DHT22;30180;44.788;10.366;2022-12-29T19:02:45;17.20;71.90
44477;DHT22;30180;44.788;10.366;2022-12-29T19:05:19;17.20;71.90
44477;DHT22;30180;44.788;10.366;2022-12-29T19:07:48;17.20;71.90
44477;DHT22;30180;44.788;10.366;2022-12-29T19:10:17;17.20;71.80
44477;DHT22;30180;44.788;10.366;2022-12-29T19:12:45;17.20;71.80
44477;DHT22;30180;44.788;10.366;2022-12-29T19:15:20;17.20;71.80
44477;DHT22;30180;44.788;10.366;2022-12-29T19:17:51;17.20;71.80
44477;DHT22;30180;44.788;10.366;2022-12-29T19:20:40;17.20;71.80
44477;DHT22;30180;44.788;10.366;2022-12-29T19:23:10;17.20;71.80
44477;DHT22;30180;44.788;10.366;2022-12-29T19:25:39;17.20;71.80
44477;DHT22;30180;44.788;10.366;2022-12-29T19:28:15;17.20;71.80
44477;DHT22;30180;44.788;10.366;2022-12-29T19:30:44;17.20;71.80
44477;DHT22;30180;44.788;10.366;2022-12-29T19:33:20;17.20;71.80
44477;DHT22;30180;44.788;10.366;2022-12-29T19:35:49;17.20;71.80
44477;DHT22;30180;44.788;10.366;2022-12-29T19:38:17;17.20;71.80
44477;DHT22;30180;44.788;10.366;2022-12-29T19:40:48;17.20;71.80
44477;DHT22;30180;44.788;10.366;2022-12-29T19:43:17;17.20;71.80
44477;DHT22;30180;44.788;10.366;2022-12-29T19:45:45;17.20;71.80
44477;DHT22;30180;44.788;10.366;2022-12-29T19:48:14;17.30;71.80
44477;DHT22;30180;44.788;10.366;2022-12-29T19:50:44;17.30;71.80
44477;DHT22;30180;44.788;10.366;2022-12-29T19:53:13;17.30;71.80
44477;DHT22;30180;44.788;10.366;2022-12-29T19:55:42;17.30;71.80
44477;DHT22;30180;44.788;10.366;2022-12-29T19:58:10;17.30;71.80
44477;DHT22;30180;44.788;10.366;2022-12-29T20:00:39;17.30;71.80
44477;DHT22;30180;44.788;10.366;2022-12-29T20:03:07;17.30;71.70
44477;DHT22;30180;44.788;10.366;2022-12-29T20:05:36;17.30;71.70
44477;DHT22;30180;44.788;10.366;2022-12-29T20:08:06;17.30;71.70
44477;DHT22;30180;44.788;10.366;2022-12-29T20:10:34;17.30;71.70
44477;DHT22;30180;44.788;10.366;2022-12-29T20:13:02;17.30;71.70
44477;DHT22;30180;44.788;10.366;2022-12-29T20:15:31;17.30;71.60
44477;DHT22;30180;44.788;10.366;2022-12-29T20:17:59;17.30;71.60
44477;DHT22;30180;44.788;10.366;2022-12-29T20:20:43;17.30;71.60
44477;DHT22;30180;44.788;10.366;2022-12-29T20:23:13;17.30;71.60
44477;DHT22;30180;44.788;10.366;2022-12-29T20:25:41;17.30;71.50
44477;DHT22;30180;44.788;10.366;2022-12-29T20:28:12;17.30;71.50
44477;DHT22;30180;44.788;10.366;2022-12-29T20:30:43;17.30;71.50
44477;DHT22;30180;44.788;10.366;2022-12-29T20:33:11;17.30;71.50
44477;DHT22;30180;44.788;10.366;2022-12-29T20:35:39;17.30;71.50
44477;DHT22;30180;44.788;10.366;2022-12-29T20:38:08;17.20;71.40
44477;DHT22;30180;44.788;10.366;2022-12-29T20:40:38;17.20;71.40
44477;DHT22;30180;44.788;10.366;2022-12-29T20:43:14;17.30;71.40
44477;DHT22;30180;44.788;10.366;2022-12-29T20:45:43;17.30;71.40
44477;DHT22;30180;44.788;10.366;2022-12-29T20:48:11;17.30;71.40
44477;DHT22;30180;44.788;10.366;2022-12-29T20:50:40;17.30;71.40
44477;DHT22;30180;44.788;10.366;2022-12-29T20:53:08;17.30;71.30
44477;DHT22;30180;44.788;10.366;2022-12-29T20:55:38;17.30;71.30
44477;DHT22;30180;44.788;10.366;2022-12-29T20:58:07;17.30;71.30
44477;DHT22;30180;44.788;10.366;2022-12-29T21:00:52;17.30;71.30
44477;DHT22;30180;44.788;10.366;2022-12-29T21:03:20;17.20;71.30
44477;DHT22;30180;44.788;10.366;2022-12-29T21:05:51;17.20;71.20
44477;DHT22;30180;44.788;10.366;2022-12-29T21:08:19;17.20;71.20
44477;DHT22;30180;44.788;10.366;2022-12-29T21:10:50;17.20;71.20
44477;DHT22;30180;44.788;10.366;2022-12-29T21:13:18;17.20;71.20
44477;DHT22;30180;44.788;10.366;2022-12-29T21:15:46;17.20;71.20
44477;DHT22;30180;44.788;10.366;2022-12-29T21:18:14;17.20;71.20
44477;DHT22;30180;44.788;10.366;2022-12-29T21:20:43;17.20;71.20
44477;DHT22;30180;44.788;10.366;2022-12-29T21:23:11;17.20;71.20
44477;DHT22;30180;44.788;10.366;2022-12-29T21:25:42;17.20;71.10
44477;DHT22;30180;44.788;10.366;2022-12-29T21:28:11;17.20;71.10
44477;DHT22;30180;44.788;10.366;2022-12-29T21:30:40;17.20;71.10
44477;DHT22;30180;44.788;10.366;2022-12-29T21:33:08;17.20;71.10
44477;DHT22;30180;44.788;10.366;2022-12-29T21:35:37;17.20;71.70
44477;DHT22;30180;44.788;10.366;2022-12-29T21:38:05;17.20;71.10
44477;DHT22;30180;44.788;10.366;2022-12-29T21:40:35;17.20;71.10
44477;DHT22;30180;44.788;10.366;2022-12-29T21:43:04;17.20;71.10
44477;DHT22;30180;44.788;10.366;2022-12-29T21:45:34;17.10;71.00
44477;DHT22;30180;44.788;10.366;2022-12-29T21:48:03;17.10;71.00
44477;DHT22;30180;44.788;10.366;2022-12-29T21:50:52;17.20;71.00
44477;DHT22;30180;44.788;10.366;2022-12-29T21:53:45;17.10;71.00
44477;DHT22;30180;44.788;10.366;2022-12-29T21:56:23;17.10;70.90
44477;DHT22;30180;44.788;10.366;2022-12-29T21:58:52;17.10;70.90
44477;DHT22;30180;44.788;10.366;2022-12-29T22:01:47;17.10;70.90
44477;DHT22;30180;44.788;10.366;2022-12-29T22:04:33;17.10;70.90
44477;DHT22;30180;44.788;10.366;2022-12-29T22:07:22;17.10;70.90
44477;DHT22;30180;44.788;10.366;2022-12-29T22:10:09;17.10;70.90
44477;DHT22;30180;44.788;10.366;2022-12-29T22:12:55;17.10;70.90
44477;DHT22;30180;44.788;10.366;2022-12-29T22:15:28;17.10;70.90
44477;DHT22;30180;44.788;10.366;2022-12-29T22:17:59;17.10;70.80
44477;DHT22;30180;44.788;10.366;2022-12-29T22:20:29;17.10;70.80
44477;DHT22;30180;44.788;10.366;2022-12-29T22:22:58;17.10;70.80
44477;DHT22;30180;44.788;10.366;2022-12-29T22:25:27;17.10;70.80
44477;DHT22;30180;44.788;10.366;2022-12-29T22:27:55;17.10;70.80
44477;DHT22;30180;44.788;10.366;2022-12-29T22:30:26;17.10;70.80
44477;DHT22;30180;44.788;10.366;2022-12-29T22:32:56;17.10;70.80
44477;DHT22;30180;44.788;10.366;2022-12-29T22:35:26;17.10;70.80
44477;DHT22;30180;44.788;10.366;2022-12-29T22:37:54;17.10;70.80
44477;DHT22;30180;44.788;10.366;2022-12-29T22:40:22;17.10;71.40
44477;DHT22;30180;44.788;10.366;2022-12-29T22:42:51;17.00;70.70
44477;DHT22;30180;44.788;10.366;2022-12-29T22:45:19;17.10;70.70
44477;DHT22;30180;44.788;10.366;2022-12-29T22:47:47;17.00;70.70
44477;DHT22;30180;44.788;10.366;2022-12-29T22:50:16;17.00;70.70
44477;DHT22;30180;44.788;10.366;2022-12-29T22:52:45;17.00;70.60
44477;DHT22;30180;44.788;10.366;2022-12-29T22:55:13;17.00;70.60
44477;DHT22;30180;44.788;10.366;2022-12-29T22:57:42;17.00;70.60
44477;DHT22;30180;44.788;10.366;2022-12-29T23:00:10;17.00;70.60
44477;DHT22;30180;44.788;10.366;2022-12-29T23:02:38;17.00;70.60
44477;DHT22;30180;44.788;10.366;2022-12-29T23:05:07;17.00;70.60
44477;DHT22;30180;44.788;10.366;2022-12-29T23:07:36;17.00;70.60
44477;DHT22;30180;44.788;10.366;2022-12-29T23:10:06;17.00;70.60
44477;DHT22;30180;44.788;10.366;2022-12-29T23:12:34;17.00;70.60
44477;DHT22;30180;44.788;10.366;2022-12-29T23:15:03;17.00;70.60
44477;DHT22;30180;44.788;10.366;2022-12-29T23:17:32;17.00;70.60
44477;DHT22;30180;44.788;10.366;2022-12-29T23:20:00;17.00;70.60
44477;DHT22;30180;44.788;10.366;2022-12-29T23:22:28;17.00;70.50
44477;DHT22;30180;44.788;10.366;2022-12-29T23:24:57;17.00;70.50
44477;DHT22;30180;44.788;10.366;2022-12-29T23:27:26;17.00;70.50
44477;DHT22;30180;44.788;10.366;2022-12-29T23:29:54;17.00;70.50
44477;DHT22;30180;44.788;10.366;2022-12-29T23:32:22;17.00;70.50
44477;DHT22;30180;44.788;10.366;2022-12-29T23:34:51;17.00;70.50
44477;DHT22;30180;44.788;10.366;2022-12-29T23:37:19;17.00;70.50
44477;DHT22;30180;44.788;10.366;2022-12-29T23:39:47;17.00;70.50
44477;DHT22;30180;44.788;10.366;2022-12-29T23:42:15;16.90;70.40
44477;DHT22;30180;44.788;10.366;2022-12-29T23:44:45;17.00;70.50
44477;DHT22;30180;44.788;10.366;2022-12-29T23:47:13;16.90;70.40
44477;DHT22;30180;44.788;10.366;2022-12-29T23:49:41;16.90;70.40
44477;DHT22;30180;44.788;10.366;2022-12-29T23:52:09;16.90;70.40
44477;DHT22;30180;44.788;10.366;2022-12-29T23:54:37;16.90;70.40
44477;DHT22;30180;44.788;10.366;2022-12-29T23:57:06;16.90;70.40
44477;DHT22;30180;44.788;10.366;2022-12-29T23:59:34;17.00;70.40
